This is the latest recevied weather packets stored in our database for station/object KD7AWQ. If no packets are shown the sender has not sent any weather packets the latest 10 day(s).
| Time | Temp. | Humidity | Pressure | Rain* | Wind** | Luminosity | Snow |
|---|---|---|---|---|---|---|---|
| 1777407676 | 25° C | 14% | 1185.2 hPa | 0 mm | - | 1043 W/m² | - |
| 1777407370 | 25° C | 14% | 1185.4 hPa | 0 mm | - | 1050 W/m² | - |
| 1777407065 | 25° C | 15% | 1185.3 hPa | 0 mm | - | 1056 W/m² | - |
| 1777406761 | 23.89° C | 15% | 1185.3 hPa | 0 mm | - | 1061 W/m² | - |
| 1777406461 | 22.78° C | 17% | 1185 hPa | 0 mm | - | 1066 W/m² | - |
| 1777406156 | 23.89° C | 16% | 1185.4 hPa | 0 mm | - | 1076 W/m² | - |
| 1777405851 | 23.89° C | 16% | 1185.3 hPa | 0 mm | - | 1078 W/m² | - |
| 1777405548 | 24.44° C | 16% | 1185.7 hPa | 0 mm | - | 1088 W/m² | - |
| 1777405246 | 25° C | 15% | 1185.6 hPa | 0 mm | - | 1084 W/m² | - |
| 1777404944 | 25° C | 15% | 1185.7 hPa | 0 mm | - | 1080 W/m² | - |
| 1777404640 | 23.33° C | 16% | 1185.8 hPa | 0 mm | - | 1081 W/m² | - |
| 1777404336 | 23.89° C | 16% | 1186 hPa | 0 mm | - | 1081 W/m² | - |
| 1777404033 | 22.78° C | 16% | 1185.7 hPa | 0 mm | - | 1081 W/m² | - |
| 1777403728 | 23.33° C | 17% | 1186 hPa | 0 mm | - | 1081 W/m² | - |
| 1777403427 | 22.78° C | 17% | 1185.6 hPa | 0 mm | - | 1080 W/m² | - |
| 1777403122 | 22.78° C | 18% | 1185.7 hPa | 0 mm | - | 1079 W/m² | - |
| 1777402818 | 22.78° C | 17% | 1186.1 hPa | 0 mm | - | 1076 W/m² | - |
| 1777402515 | 22.22° C | 17% | 1186 hPa | 0 mm | - | 1075 W/m² | - |
| 1777402212 | 22.22° C | 18% | 1186.2 hPa | 0 mm | - | 1073 W/m² | - |
| 1777401912 | 21.67° C | 18% | 1186.4 hPa | 0 mm | - | 1070 W/m² | - |
| 1777401611 | 22.22° C | 19% | 1186.3 hPa | 0 mm | - | 1066 W/m² | - |
| 1777401308 | 22.22° C | 19% | 1186.5 hPa | 0 mm | - | 1061 W/m² | - |
| 1777401003 | 22.22° C | 18% | 1186.4 hPa | 0 mm | - | 1043 W/m² | - |
| 1777400699 | 21.67° C | 19% | 1186.4 hPa | 0 mm | - | 1042 W/m² | - |
| 1777400397 | 21.67° C | 19% | 1186.6 hPa | 0 mm | - | 991 W/m² | - |
* Rain latest hour (hover to see other rain measurements)
** Current wind speed in m/s (hover to see current wind gust speed)